sensor_id;sensor_type;location;lat;lon;timestamp;P1;durP1;ratioP1;P2;durP2;ratioP2
66163;SDS011;52962;51.088;3.096;2023-04-03T00:01:00;3.60;;;2.40;;
66163;SDS011;52962;51.088;3.096;2023-04-03T00:03:29;2.97;;;2.78;;
66163;SDS011;52962;51.088;3.096;2023-04-03T00:08:26;3.30;;;2.20;;
66163;SDS011;52962;51.088;3.096;2023-04-03T00:10:56;6.05;;;3.20;;
66163;SDS011;52962;51.088;3.096;2023-04-03T00:13:24;2.97;;;2.55;;
66163;SDS011;52962;51.088;3.096;2023-04-03T00:15:54;2.88;;;2.67;;
66163;SDS011;52962;51.088;3.096;2023-04-03T00:18:22;4.50;;;2.90;;
66163;SDS011;52962;51.088;3.096;2023-04-03T00:20:51;2.45;;;2.25;;
66163;SDS011;52962;51.088;3.096;2023-04-03T00:23:19;3.50;;;2.65;;
66163;SDS011;52962;51.088;3.096;2023-04-03T00:25:47;2.70;;;2.45;;
66163;SDS011;52962;51.088;3.096;2023-04-03T00:28:15;4.93;;;3.53;;
66163;SDS011;52962;51.088;3.096;2023-04-03T00:30:43;3.35;;;2.67;;
66163;SDS011;52962;51.088;3.096;2023-04-03T00:33:13;6.47;;;2.80;;
66163;SDS011;52962;51.088;3.096;2023-04-03T00:35:41;5.93;;;3.05;;
66163;SDS011;52962;51.088;3.096;2023-04-03T00:38:10;3.72;;;2.70;;
66163;SDS011;52962;51.088;3.096;2023-04-03T00:40:39;3.05;;;2.75;;
66163;SDS011;52962;51.088;3.096;2023-04-03T00:43:11;4.07;;;3.00;;
66163;SDS011;52962;51.088;3.096;2023-04-03T00:45:42;4.90;;;3.25;;
66163;SDS011;52962;51.088;3.096;2023-04-03T00:48:15;3.35;;;2.83;;
66163;SDS011;52962;51.088;3.096;2023-04-03T00:50:46;3.08;;;2.88;;
66163;SDS011;52962;51.088;3.096;2023-04-03T00:53:16;3.80;;;2.88;;
66163;SDS011;52962;51.088;3.096;2023-04-03T00:55:46;2.95;;;2.72;;
66163;SDS011;52962;51.088;3.096;2023-04-03T00:58:16;4.53;;;2.83;;
66163;SDS011;52962;51.088;3.096;2023-04-03T01:00:50;3.33;;;2.53;;
66163;SDS011;52962;51.088;3.096;2023-04-03T01:03:25;2.78;;;2.53;;
66163;SDS011;52962;51.088;3.096;2023-04-03T01:05:54;3.83;;;2.97;;
66163;SDS011;52962;51.088;3.096;2023-04-03T01:08:22;4.43;;;2.70;;
66163;SDS011;52962;51.088;3.096;2023-04-03T01:13:22;2.42;;;2.17;;
66163;SDS011;52962;51.088;3.096;2023-04-03T01:15:53;2.95;;;2.67;;
66163;SDS011;52962;51.088;3.096;2023-04-03T01:18:22;4.78;;;2.50;;
66163;SDS011;52962;51.088;3.096;2023-04-03T01:21:03;4.07;;;2.28;;
66163;SDS011;52962;51.088;3.096;2023-04-03T01:23:53;2.40;;;2.20;;
66163;SDS011;52962;51.088;3.096;2023-04-03T01:26:28;2.72;;;2.10;;
66163;SDS011;52962;51.088;3.096;2023-04-03T01:28:56;2.55;;;2.35;;
66163;SDS011;52962;51.088;3.096;2023-04-03T01:31:27;3.10;;;2.78;;
66163;SDS011;52962;51.088;3.096;2023-04-03T01:34:00;3.10;;;2.70;;
66163;SDS011;52962;51.088;3.096;2023-04-03T01:36:31;3.20;;;2.38;;
66163;SDS011;52962;51.088;3.096;2023-04-03T01:38:59;5.22;;;2.75;;
66163;SDS011;52962;51.088;3.096;2023-04-03T01:41:28;3.15;;;2.83;;
66163;SDS011;52962;51.088;3.096;2023-04-03T01:44:06;3.47;;;2.33;;
66163;SDS011;52962;51.088;3.096;2023-04-03T01:46:34;4.93;;;2.10;;
66163;SDS011;52962;51.088;3.096;2023-04-03T01:49:05;6.15;;;2.85;;
66163;SDS011;52962;51.088;3.096;2023-04-03T01:51:33;2.53;;;2.33;;
66163;SDS011;52962;51.088;3.096;2023-04-03T01:54:02;3.08;;;2.88;;
66163;SDS011;52962;51.088;3.096;2023-04-03T01:56:30;3.78;;;2.78;;
66163;SDS011;52962;51.088;3.096;2023-04-03T01:58:59;2.88;;;2.67;;
66163;SDS011;52962;51.088;3.096;2023-04-03T02:01:27;3.20;;;2.75;;
66163;SDS011;52962;51.088;3.096;2023-04-03T02:03:55;3.08;;;2.67;;
66163;SDS011;52962;51.088;3.096;2023-04-03T02:06:25;2.67;;;2.45;;
66163;SDS011;52962;51.088;3.096;2023-04-03T02:08:53;2.83;;;2.22;;
66163;SDS011;52962;51.088;3.096;2023-04-03T02:11:21;2.85;;;2.65;;
66163;SDS011;52962;51.088;3.096;2023-04-03T02:13:49;3.85;;;2.63;;
66163;SDS011;52962;51.088;3.096;2023-04-03T02:16:17;3.83;;;2.65;;
66163;SDS011;52962;51.088;3.096;2023-04-03T02:18:48;4.03;;;2.67;;
66163;SDS011;52962;51.088;3.096;2023-04-03T02:21:17;3.92;;;2.78;;
66163;SDS011;52962;51.088;3.096;2023-04-03T02:23:48;4.85;;;2.75;;
66163;SDS011;52962;51.088;3.096;2023-04-03T02:26:18;6.03;;;2.63;;
66163;SDS011;52962;51.088;3.096;2023-04-03T02:28:46;3.35;;;3.05;;
66163;SDS011;52962;51.088;3.096;2023-04-03T02:31:14;6.43;;;2.88;;
66163;SDS011;52962;51.088;3.096;2023-04-03T02:33:44;3.25;;;2.47;;
66163;SDS011;52962;51.088;3.096;2023-04-03T02:36:14;3.70;;;2.60;;
66163;SDS011;52962;51.088;3.096;2023-04-03T02:38:49;2.97;;;2.70;;
66163;SDS011;52962;51.088;3.096;2023-04-03T02:41:17;3.10;;;2.63;;
66163;SDS011;52962;51.088;3.096;2023-04-03T02:43:46;3.63;;;3.33;;
66163;SDS011;52962;51.088;3.096;2023-04-03T02:46:15;3.58;;;3.20;;
66163;SDS011;52962;51.088;3.096;2023-04-03T02:48:43;3.60;;;3.30;;
66163;SDS011;52962;51.088;3.096;2023-04-03T02:51:11;3.55;;;2.45;;
66163;SDS011;52962;51.088;3.096;2023-04-03T02:53:39;4.18;;;3.55;;
66163;SDS011;52962;51.088;3.096;2023-04-03T02:56:14;3.20;;;2.88;;
66163;SDS011;52962;51.088;3.096;2023-04-03T02:58:43;4.82;;;2.78;;
66163;SDS011;52962;51.088;3.096;2023-04-03T03:03:41;2.88;;;2.40;;
66163;SDS011;52962;51.088;3.096;2023-04-03T03:06:10;3.35;;;3.05;;
66163;SDS011;52962;51.088;3.096;2023-04-03T03:08:40;4.50;;;2.90;;
66163;SDS011;52962;51.088;3.096;2023-04-03T03:11:09;3.10;;;2.88;;
66163;SDS011;52962;51.088;3.096;2023-04-03T03:13:38;4.72;;;3.40;;
66163;SDS011;52962;51.088;3.096;2023-04-03T03:16:07;3.10;;;2.83;;
66163;SDS011;52962;51.088;3.096;2023-04-03T03:18:35;2.95;;;2.72;;
66163;SDS011;52962;51.088;3.096;2023-04-03T03:21:04;3.47;;;3.17;;
66163;SDS011;52962;51.088;3.096;2023-04-03T03:23:34;3.83;;;3.42;;
66163;SDS011;52962;51.088;3.096;2023-04-03T03:26:03;3.40;;;3.05;;
66163;SDS011;52962;51.088;3.096;2023-04-03T03:28:33;3.45;;;3.15;;
66163;SDS011;52962;51.088;3.096;2023-04-03T03:31:06;4.05;;;3.10;;
66163;SDS011;52962;51.088;3.096;2023-04-03T03:33:37;3.35;;;3.05;;
66163;SDS011;52962;51.088;3.096;2023-04-03T03:36:05;3.22;;;2.78;;
66163;SDS011;52962;51.088;3.096;2023-04-03T03:38:35;3.55;;;3.25;;
66163;SDS011;52962;51.088;3.096;2023-04-03T03:41:03;3.85;;;3.42;;
66163;SDS011;52962;51.088;3.096;2023-04-03T03:43:33;2.75;;;2.53;;
66163;SDS011;52962;51.088;3.096;2023-04-03T03:46:03;6.22;;;3.42;;
66163;SDS011;52962;51.088;3.096;2023-04-03T03:48:33;4.00;;;3.13;;
66163;SDS011;52962;51.088;3.096;2023-04-03T03:51:01;3.00;;;2.80;;
66163;SDS011;52962;51.088;3.096;2023-04-03T03:53:34;3.42;;;3.13;;
66163;SDS011;52962;51.088;3.096;2023-04-03T03:56:06;5.78;;;2.88;;
66163;SDS011;52962;51.088;3.096;2023-04-03T03:58:36;3.33;;;3.03;;
66163;SDS011;52962;51.088;3.096;2023-04-03T04:01:05;3.10;;;2.80;;
66163;SDS011;52962;51.088;3.096;2023-04-03T04:06:12;2.35;;;2.15;;
66163;SDS011;52962;51.088;3.096;2023-04-03T04:08:41;2.10;;;1.95;;
66163;SDS011;52962;51.088;3.096;2023-04-03T04:11:11;7.30;;;3.22;;
66163;SDS011;52962;51.088;3.096;2023-04-03T04:13:40;3.55;;;3.20;;
66163;SDS011;52962;51.088;3.096;2023-04-03T04:16:11;3.50;;;2.72;;
66163;SDS011;52962;51.088;3.096;2023-04-03T04:18:39;5.13;;;2.75;;
66163;SDS011;52962;51.088;3.096;2023-04-03T04:21:08;3.22;;;2.95;;
66163;SDS011;52962;51.088;3.096;2023-04-03T04:23:38;3.25;;;3.03;;
66163;SDS011;52962;51.088;3.096;2023-04-03T04:26:06;2.40;;;2.20;;
66163;SDS011;52962;51.088;3.096;2023-04-03T04:28:37;3.10;;;2.88;;
66163;SDS011;52962;51.088;3.096;2023-04-03T04:31:05;2.72;;;2.53;;
66163;SDS011;52962;51.088;3.096;2023-04-03T04:33:34;2.35;;;2.10;;
66163;SDS011;52962;51.088;3.096;2023-04-03T04:36:04;4.65;;;2.75;;
66163;SDS011;52962;51.088;3.096;2023-04-03T04:38:34;3.30;;;2.95;;
66163;SDS011;52962;51.088;3.096;2023-04-03T04:41:03;2.58;;;2.38;;
66163;SDS011;52962;51.088;3.096;2023-04-03T04:43:31;2.90;;;2.15;;
66163;SDS011;52962;51.088;3.096;2023-04-03T04:46:01;4.43;;;2.20;;
66163;SDS011;52962;51.088;3.096;2023-04-03T04:48:34;4.15;;;2.80;;
66163;SDS011;52962;51.088;3.096;2023-04-03T04:51:04;3.03;;;2.72;;
66163;SDS011;52962;51.088;3.096;2023-04-03T04:53:36;2.33;;;2.13;;
66163;SDS011;52962;51.088;3.096;2023-04-03T04:56:05;3.08;;;2.80;;
66163;SDS011;52962;51.088;3.096;2023-04-03T04:58:35;2.90;;;2.70;;
66163;SDS011;52962;51.088;3.096;2023-04-03T05:03:36;2.08;;;1.83;;
66163;SDS011;52962;51.088;3.096;2023-04-03T05:06:05;2.67;;;2.47;;
66163;SDS011;52962;51.088;3.096;2023-04-03T05:08:36;2.75;;;2.13;;
66163;SDS011;52962;51.088;3.096;2023-04-03T05:11:05;2.95;;;2.67;;
66163;SDS011;52962;51.088;3.096;2023-04-03T05:13:34;4.53;;;3.00;;
66163;SDS011;52962;51.088;3.096;2023-04-03T05:16:02;4.03;;;2.90;;
66163;SDS011;52962;51.088;3.096;2023-04-03T05:18:31;3.45;;;3.05;;
66163;SDS011;52962;51.088;3.096;2023-04-03T05:21:04;6.97;;;3.03;;
66163;SDS011;52962;51.088;3.096;2023-04-03T05:23:32;5.75;;;3.03;;
66163;SDS011;52962;51.088;3.096;2023-04-03T05:26:03;2.95;;;2.55;;
66163;SDS011;52962;51.088;3.096;2023-04-03T05:28:32;4.47;;;2.80;;
66163;SDS011;52962;51.088;3.096;2023-04-03T05:31:01;3.42;;;3.13;;
66163;SDS011;52962;51.088;3.096;2023-04-03T05:33:33;4.78;;;3.47;;
66163;SDS011;52962;51.088;3.096;2023-04-03T05:36:05;7.85;;;3.60;;
66163;SDS011;52962;51.088;3.096;2023-04-03T05:41:09;3.92;;;3.00;;
66163;SDS011;52962;51.088;3.096;2023-04-03T05:43:37;3.42;;;2.75;;
66163;SDS011;52962;51.088;3.096;2023-04-03T05:46:09;3.45;;;3.15;;
66163;SDS011;52962;51.088;3.096;2023-04-03T05:48:40;3.70;;;3.33;;
66163;SDS011;52962;51.088;3.096;2023-04-03T05:51:14;3.70;;;3.25;;
66163;SDS011;52962;51.088;3.096;2023-04-03T05:53:45;3.03;;;2.58;;
66163;SDS011;52962;51.088;3.096;2023-04-03T05:56:17;3.20;;;2.90;;
66163;SDS011;52962;51.088;3.096;2023-04-03T05:58:45;3.17;;;2.90;;
66163;SDS011;52962;51.088;3.096;2023-04-03T06:01:13;3.10;;;2.70;;
66163;SDS011;52962;51.088;3.096;2023-04-03T06:03:43;4.03;;;3.10;;
66163;SDS011;52962;51.088;3.096;2023-04-03T06:08:40;4.43;;;2.40;;
66163;SDS011;52962;51.088;3.096;2023-04-03T06:11:10;3.90;;;2.85;;
66163;SDS011;52962;51.088;3.096;2023-04-03T06:13:40;3.10;;;2.80;;
66163;SDS011;52962;51.088;3.096;2023-04-03T06:16:08;4.35;;;2.90;;
66163;SDS011;52962;51.088;3.096;2023-04-03T06:18:40;4.68;;;3.20;;
66163;SDS011;52962;51.088;3.096;2023-04-03T06:21:09;2.95;;;2.75;;
66163;SDS011;52962;51.088;3.096;2023-04-03T06:23:38;3.60;;;2.58;;
66163;SDS011;52962;51.088;3.096;2023-04-03T06:26:07;4.53;;;3.42;;
66163;SDS011;52962;51.088;3.096;2023-04-03T06:28:35;4.10;;;3.10;;
66163;SDS011;52962;51.088;3.096;2023-04-03T06:31:05;3.17;;;2.88;;
66163;SDS011;52962;51.088;3.096;2023-04-03T06:33:33;2.78;;;2.58;;
66163;SDS011;52962;51.088;3.096;2023-04-03T06:36:03;3.72;;;3.42;;
66163;SDS011;52962;51.088;3.096;2023-04-03T06:38:33;3.70;;;3.28;;
66163;SDS011;52962;51.088;3.096;2023-04-03T06:43:29;2.83;;;2.53;;
66163;SDS011;52962;51.088;3.096;2023-04-03T06:46:00;3.03;;;2.72;;
66163;SDS011;52962;51.088;3.096;2023-04-03T06:48:30;4.00;;;3.00;;
66163;SDS011;52962;51.088;3.096;2023-04-03T06:50:58;2.72;;;2.53;;
66163;SDS011;52962;51.088;3.096;2023-04-03T06:53:26;3.22;;;2.80;;
66163;SDS011;52962;51.088;3.096;2023-04-03T06:55:54;3.63;;;3.33;;
66163;SDS011;52962;51.088;3.096;2023-04-03T06:58:23;3.63;;;3.30;;
66163;SDS011;52962;51.088;3.096;2023-04-03T07:00:51;2.35;;;2.20;;
66163;SDS011;52962;51.088;3.096;2023-04-03T07:03:19;5.03;;;3.25;;
66163;SDS011;52962;51.088;3.096;2023-04-03T07:05:49;3.85;;;3.50;;
66163;SDS011;52962;51.088;3.096;2023-04-03T07:08:17;3.92;;;3.63;;
66163;SDS011;52962;51.088;3.096;2023-04-03T07:10:45;3.63;;;3.33;;
66163;SDS011;52962;51.088;3.096;2023-04-03T07:13:13;4.43;;;3.47;;
66163;SDS011;52962;51.088;3.096;2023-04-03T07:15:41;5.55;;;3.13;;
66163;SDS011;52962;51.088;3.096;2023-04-03T07:18:09;3.80;;;3.40;;
66163;SDS011;52962;51.088;3.096;2023-04-03T07:20:38;3.90;;;3.13;;
66163;SDS011;52962;51.088;3.096;2023-04-03T07:25:35;5.50;;;2.85;;
66163;SDS011;52962;51.088;3.096;2023-04-03T07:28:05;2.58;;;2.38;;
66163;SDS011;52962;51.088;3.096;2023-04-03T07:30:34;4.03;;;2.88;;
66163;SDS011;52962;51.088;3.096;2023-04-03T07:33:02;2.97;;;2.33;;
66163;SDS011;52962;51.088;3.096;2023-04-03T07:35:31;2.83;;;2.63;;
66163;SDS011;52962;51.088;3.096;2023-04-03T07:37:59;4.45;;;2.83;;
66163;SDS011;52962;51.088;3.096;2023-04-03T07:40:29;2.33;;;2.13;;
66163;SDS011;52962;51.088;3.096;2023-04-03T07:42:57;1.67;;;1.58;;
66163;SDS011;52962;51.088;3.096;2023-04-03T07:45:26;3.25;;;2.65;;
66163;SDS011;52962;51.088;3.096;2023-04-03T07:47:54;2.90;;;2.25;;
66163;SDS011;52962;51.088;3.096;2023-04-03T07:52:51;2.10;;;2.00;;
66163;SDS011;52962;51.088;3.096;2023-04-03T07:55:24;2.42;;;2.08;;
66163;SDS011;52962;51.088;3.096;2023-04-03T07:57:54;2.85;;;2.63;;
66163;SDS011;52962;51.088;3.096;2023-04-03T08:00:22;7.47;;;2.65;;
66163;SDS011;52962;51.088;3.096;2023-04-03T08:02:51;2.78;;;2.45;;
66163;SDS011;52962;51.088;3.096;2023-04-03T08:05:20;2.28;;;2.08;;
66163;SDS011;52962;51.088;3.096;2023-04-03T08:07:48;2.38;;;2.20;;
66163;SDS011;52962;51.088;3.096;2023-04-03T08:10:17;2.53;;;1.63;;
66163;SDS011;52962;51.088;3.096;2023-04-03T08:15:15;2.25;;;2.08;;
66163;SDS011;52962;51.088;3.096;2023-04-03T08:17:43;6.28;;;2.20;;
66163;SDS011;52962;51.088;3.096;2023-04-03T08:22:39;2.22;;;2.00;;
66163;SDS011;52962;51.088;3.096;2023-04-03T08:25:08;1.63;;;1.15;;
66163;SDS011;52962;51.088;3.096;2023-04-03T08:27:37;2.30;;;1.90;;
66163;SDS011;52962;51.088;3.096;2023-04-03T08:30:05;2.40;;;1.88;;
66163;SDS011;52962;51.088;3.096;2023-04-03T08:32:36;3.30;;;2.15;;
66163;SDS011;52962;51.088;3.096;2023-04-03T08:35:05;2.70;;;1.98;;
66163;SDS011;52962;51.088;3.096;2023-04-03T08:40:02;1.33;;;1.23;;
66163;SDS011;52962;51.088;3.096;2023-04-03T08:42:36;5.50;;;2.83;;
66163;SDS011;52962;51.088;3.096;2023-04-03T08:45:13;6.43;;;3.40;;
66163;SDS011;52962;51.088;3.096;2023-04-03T08:47:47;2.95;;;2.58;;
66163;SDS011;52962;51.088;3.096;2023-04-03T08:50:23;2.15;;;1.95;;
66163;SDS011;52962;51.088;3.096;2023-04-03T08:52:58;4.63;;;4.20;;
66163;SDS011;52962;51.088;3.096;2023-04-03T08:55:31;11.60;;;4.75;;
66163;SDS011;52962;51.088;3.096;2023-04-03T08:58:02;3.28;;;2.97;;
66163;SDS011;52962;51.088;3.096;2023-04-03T09:00:35;6.57;;;4.25;;
66163;SDS011;52962;51.088;3.096;2023-04-03T09:03:13;4.30;;;3.95;;
66163;SDS011;52962;51.088;3.096;2023-04-03T09:05:44;2.63;;;2.42;;
66163;SDS011;52962;51.088;3.096;2023-04-03T09:08:20;2.75;;;2.55;;
66163;SDS011;52962;51.088;3.096;2023-04-03T09:11:00;6.05;;;4.25;;
66163;SDS011;52962;51.088;3.096;2023-04-03T09:13:36;4.45;;;4.05;;
66163;SDS011;52962;51.088;3.096;2023-04-03T09:16:18;4.22;;;3.60;;
66163;SDS011;52962;51.088;3.096;2023-04-03T09:18:54;5.22;;;4.13;;
66163;SDS011;52962;51.088;3.096;2023-04-03T09:21:31;5.90;;;3.80;;
66163;SDS011;52962;51.088;3.096;2023-04-03T09:24:02;7.07;;;3.78;;
66163;SDS011;52962;51.088;3.096;2023-04-03T09:26:34;5.32;;;3.22;;
66163;SDS011;52962;51.088;3.096;2023-04-03T09:29:06;7.07;;;4.07;;
66163;SDS011;52962;51.088;3.096;2023-04-03T09:31:37;4.78;;;3.60;;
66163;SDS011;52962;51.088;3.096;2023-04-03T09:34:12;7.25;;;5.30;;
66163;SDS011;52962;51.088;3.096;2023-04-03T09:36:46;5.90;;;3.63;;
66163;SDS011;52962;51.088;3.096;2023-04-03T09:39:16;3.63;;;3.22;;
66163;SDS011;52962;51.088;3.096;2023-04-03T09:41:55;3.58;;;2.72;;
66163;SDS011;52962;51.088;3.096;2023-04-03T09:44:26;3.88;;;2.80;;
66163;SDS011;52962;51.088;3.096;2023-04-03T09:46:56;3.97;;;3.15;;
66163;SDS011;52962;51.088;3.096;2023-04-03T09:49:26;4.38;;;3.50;;
66163;SDS011;52962;51.088;3.096;2023-04-03T09:51:54;3.88;;;3.58;;
66163;SDS011;52962;51.088;3.096;2023-04-03T09:54:30;3.63;;;3.33;;
66163;SDS011;52962;51.088;3.096;2023-04-03T09:57:01;3.42;;;2.92;;
66163;SDS011;52962;51.088;3.096;2023-04-03T09:59:34;3.38;;;3.08;;
66163;SDS011;52962;51.088;3.096;2023-04-03T10:02:04;6.07;;;2.80;;
66163;SDS011;52962;51.088;3.096;2023-04-03T10:04:52;3.15;;;2.33;;
66163;SDS011;52962;51.088;3.096;2023-04-03T10:07:35;2.70;;;2.50;;
66163;SDS011;52962;51.088;3.096;2023-04-03T10:10:16;2.42;;;2.22;;
66163;SDS011;52962;51.088;3.096;2023-04-03T10:12:50;4.20;;;3.00;;
66163;SDS011;52962;51.088;3.096;2023-04-03T10:15:33;5.03;;;3.60;;
66163;SDS011;52962;51.088;3.096;2023-04-03T10:18:10;4.65;;;4.22;;
66163;SDS011;52962;51.088;3.096;2023-04-03T10:20:58;4.68;;;3.63;;
66163;SDS011;52962;51.088;3.096;2023-04-03T10:23:48;4.03;;;2.75;;
66163;SDS011;52962;51.088;3.096;2023-04-03T10:26:24;5.57;;;2.65;;
66163;SDS011;52962;51.088;3.096;2023-04-03T10:29:02;7.25;;;2.78;;
66163;SDS011;52962;51.088;3.096;2023-04-03T10:31:43;4.03;;;2.75;;
66163;SDS011;52962;51.088;3.096;2023-04-03T10:34:20;3.05;;;2.35;;
66163;SDS011;52962;51.088;3.096;2023-04-03T10:36:54;2.25;;;2.05;;
66163;SDS011;52962;51.088;3.096;2023-04-03T10:39:30;2.15;;;1.67;;
66163;SDS011;52962;51.088;3.096;2023-04-03T10:42:05;2.67;;;1.77;;
66163;SDS011;52962;51.088;3.096;2023-04-03T10:44:56;3.13;;;2.15;;
66163;SDS011;52962;51.088;3.096;2023-04-03T10:47:36;3.92;;;1.88;;
66163;SDS011;52962;51.088;3.096;2023-04-03T10:50:15;2.28;;;1.55;;
66163;SDS011;52962;51.088;3.096;2023-04-03T10:52:57;2.65;;;1.60;;
66163;SDS011;52962;51.088;3.096;2023-04-03T10:55:34;2.78;;;1.92;;
66163;SDS011;52962;51.088;3.096;2023-04-03T10:58:06;1.92;;;1.77;;
66163;SDS011;52962;51.088;3.096;2023-04-03T11:00:39;2.83;;;2.30;;
66163;SDS011;52962;51.088;3.096;2023-04-03T11:03:11;2.90;;;2.22;;
66163;SDS011;52962;51.088;3.096;2023-04-03T11:05:43;3.03;;;1.85;;
66163;SDS011;52962;51.088;3.096;2023-04-03T11:08:15;2.83;;;1.70;;
66163;SDS011;52962;51.088;3.096;2023-04-03T11:10:53;2.38;;;1.10;;
66163;SDS011;52962;51.088;3.096;2023-04-03T11:13:27;6.25;;;2.13;;
66163;SDS011;52962;51.088;3.096;2023-04-03T11:16:00;2.75;;;1.83;;
66163;SDS011;52962;51.088;3.096;2023-04-03T11:18:32;2.72;;;2.28;;
66163;SDS011;52962;51.088;3.096;2023-04-03T11:21:07;2.65;;;1.33;;
66163;SDS011;52962;51.088;3.096;2023-04-03T11:23:41;3.92;;;1.90;;
66163;SDS011;52962;51.088;3.096;2023-04-03T11:26:16;4.72;;;2.05;;
66163;SDS011;52962;51.088;3.096;2023-04-03T11:28:52;2.47;;;1.50;;
66163;SDS011;52962;51.088;3.096;2023-04-03T11:31:30;4.35;;;1.77;;
66163;SDS011;52962;51.088;3.096;2023-04-03T11:34:08;3.30;;;2.58;;
66163;SDS011;52962;51.088;3.096;2023-04-03T11:36:47;2.08;;;1.88;;
66163;SDS011;52962;51.088;3.096;2023-04-03T11:39:21;2.78;;;1.13;;
66163;SDS011;52962;51.088;3.096;2023-04-03T11:41:53;5.60;;;1.60;;
66163;SDS011;52962;51.088;3.096;2023-04-03T11:44:37;5.15;;;1.45;;
66163;SDS011;52962;51.088;3.096;2023-04-03T11:47:06;2.00;;;1.27;;
66163;SDS011;52962;51.088;3.096;2023-04-03T11:49:51;1.75;;;1.58;;
66163;SDS011;52962;51.088;3.096;2023-04-03T11:55:42;2.70;;;1.80;;
66163;SDS011;52962;51.088;3.096;2023-04-03T11:58:27;3.47;;;1.77;;
66163;SDS011;52962;51.088;3.096;2023-04-03T12:00:58;1.15;;;0.90;;
66163;SDS011;52962;51.088;3.096;2023-04-03T12:09:25;2.80;;;1.38;;
66163;SDS011;52962;51.088;3.096;2023-04-03T12:11:58;1.60;;;1.10;;
66163;SDS011;52962;51.088;3.096;2023-04-03T12:14:28;2.75;;;1.63;;
66163;SDS011;52962;51.088;3.096;2023-04-03T12:16:57;4.25;;;1.83;;
66163;SDS011;52962;51.088;3.096;2023-04-03T12:19:31;2.60;;;1.60;;
66163;SDS011;52962;51.088;3.096;2023-04-03T12:22:08;4.00;;;1.98;;
66163;SDS011;52962;51.088;3.096;2023-04-03T12:24:41;4.72;;;1.83;;
66163;SDS011;52962;51.088;3.096;2023-04-03T12:27:20;2.97;;;1.80;;
66163;SDS011;52962;51.088;3.096;2023-04-03T12:29:55;3.25;;;1.60;;
66163;SDS011;52962;51.088;3.096;2023-04-03T12:32:35;1.90;;;1.70;;
66163;SDS011;52962;51.088;3.096;2023-04-03T12:35:18;2.40;;;2.20;;
66163;SDS011;52962;51.088;3.096;2023-04-03T12:38:12;1.52;;;1.42;;
66163;SDS011;52962;51.088;3.096;2023-04-03T12:40:57;4.53;;;1.90;;
66163;SDS011;52962;51.088;3.096;2023-04-03T12:43:45;3.38;;;1.67;;
66163;SDS011;52962;51.088;3.096;2023-04-03T12:46:24;7.72;;;2.40;;
66163;SDS011;52962;51.088;3.096;2023-04-03T12:49:00;2.88;;;1.50;;
66163;SDS011;52962;51.088;3.096;2023-04-03T12:51:31;1.90;;;1.70;;
66163;SDS011;52962;51.088;3.096;2023-04-03T12:54:12;2.00;;;1.80;;
66163;SDS011;52962;51.088;3.096;2023-04-03T12:56:42;2.58;;;2.05;;
66163;SDS011;52962;51.088;3.096;2023-04-03T12:59:16;1.63;;;0.80;;
66163;SDS011;52962;51.088;3.096;2023-04-03T13:01:53;2.58;;;1.88;;
66163;SDS011;52962;51.088;3.096;2023-04-03T13:04:22;2.38;;;1.60;;
66163;SDS011;52962;51.088;3.096;2023-04-03T13:06:51;3.20;;;2.05;;
66163;SDS011;52962;51.088;3.096;2023-04-03T13:09:20;1.65;;;1.55;;
66163;SDS011;52962;51.088;3.096;2023-04-03T13:11:50;3.30;;;1.80;;
66163;SDS011;52962;51.088;3.096;2023-04-03T13:16:55;2.38;;;1.20;;
66163;SDS011;52962;51.088;3.096;2023-04-03T13:19:25;2.30;;;2.03;;
66163;SDS011;52962;51.088;3.096;2023-04-03T13:21:57;1.45;;;1.20;;
66163;SDS011;52962;51.088;3.096;2023-04-03T13:24:30;5.40;;;1.85;;
66163;SDS011;52962;51.088;3.096;2023-04-03T13:27:01;2.63;;;1.60;;
66163;SDS011;52962;51.088;3.096;2023-04-03T13:29:33;1.38;;;1.15;;
66163;SDS011;52962;51.088;3.096;2023-04-03T13:32:04;1.27;;;1.17;;
66163;SDS011;52962;51.088;3.096;2023-04-03T13:34:36;1.30;;;1.20;;
66163;SDS011;52962;51.088;3.096;2023-04-03T13:37:06;1.77;;;1.35;;
66163;SDS011;52962;51.088;3.096;2023-04-03T13:39:35;3.10;;;1.65;;
66163;SDS011;52962;51.088;3.096;2023-04-03T13:42:14;2.17;;;1.08;;
66163;SDS011;52962;51.088;3.096;2023-04-03T13:44:45;2.75;;;1.52;;
66163;SDS011;52962;51.088;3.096;2023-04-03T13:47:15;1.75;;;1.65;;
66163;SDS011;52962;51.088;3.096;2023-04-03T13:49:45;3.58;;;2.03;;
66163;SDS011;52962;51.088;3.096;2023-04-03T13:52:27;2.90;;;1.25;;
66163;SDS011;52962;51.088;3.096;2023-04-03T13:54:59;2.15;;;1.70;;
66163;SDS011;52962;51.088;3.096;2023-04-03T13:57:35;1.77;;;1.58;;
66163;SDS011;52962;51.088;3.096;2023-04-03T14:02:48;1.15;;;1.05;;
66163;SDS011;52962;51.088;3.096;2023-04-03T14:05:16;1.42;;;0.93;;
66163;SDS011;52962;51.088;3.096;2023-04-03T14:07:47;3.50;;;1.65;;
66163;SDS011;52962;51.088;3.096;2023-04-03T14:10:15;1.25;;;1.15;;
66163;SDS011;52962;51.088;3.096;2023-04-03T14:15:16;2.08;;;1.45;;
66163;SDS011;52962;51.088;3.096;2023-04-03T14:17:49;4.53;;;2.08;;
66163;SDS011;52962;51.088;3.096;2023-04-03T14:20:19;2.72;;;2.53;;
66163;SDS011;52962;51.088;3.096;2023-04-03T14:22:49;2.70;;;1.88;;
66163;SDS011;52962;51.088;3.096;2023-04-03T14:25:18;3.13;;;2.03;;
66163;SDS011;52962;51.088;3.096;2023-04-03T14:27:47;2.85;;;2.60;;
66163;SDS011;52962;51.088;3.096;2023-04-03T14:30:17;3.60;;;2.30;;
66163;SDS011;52962;51.088;3.096;2023-04-03T14:32:49;2.50;;;1.77;;
66163;SDS011;52962;51.088;3.096;2023-04-03T14:35:17;1.33;;;1.27;;
66163;SDS011;52962;51.088;3.096;2023-04-03T14:37:47;2.22;;;1.85;;
66163;SDS011;52962;51.088;3.096;2023-04-03T14:40:17;1.95;;;1.55;;
66163;SDS011;52962;51.088;3.096;2023-04-03T14:42:49;1.65;;;1.55;;
66163;SDS011;52962;51.088;3.096;2023-04-03T14:45:17;4.38;;;1.30;;
66163;SDS011;52962;51.088;3.096;2023-04-03T14:47:46;2.50;;;1.77;;
66163;SDS011;52962;51.088;3.096;2023-04-03T14:50:19;1.23;;;1.13;;
66163;SDS011;52962;51.088;3.096;2023-04-03T14:52:50;1.42;;;1.25;;
66163;SDS011;52962;51.088;3.096;2023-04-03T14:55:21;2.17;;;1.05;;
66163;SDS011;52962;51.088;3.096;2023-04-03T14:57:50;2.47;;;1.42;;
66163;SDS011;52962;51.088;3.096;2023-04-03T15:00:19;2.22;;;1.42;;
66163;SDS011;52962;51.088;3.096;2023-04-03T15:02:50;3.67;;;1.58;;
66163;SDS011;52962;51.088;3.096;2023-04-03T15:05:19;1.25;;;1.15;;
66163;SDS011;52962;51.088;3.096;2023-04-03T15:07:48;2.08;;;1.58;;
66163;SDS011;52962;51.088;3.096;2023-04-03T15:10:19;4.07;;;1.60;;
66163;SDS011;52962;51.088;3.096;2023-04-03T15:12:48;2.53;;;1.65;;
66163;SDS011;52962;51.088;3.096;2023-04-03T15:15:17;1.92;;;1.23;;
66163;SDS011;52962;51.088;3.096;2023-04-03T15:17:47;2.45;;;1.90;;
66163;SDS011;52962;51.088;3.096;2023-04-03T15:20:22;1.63;;;1.52;;
66163;SDS011;52962;51.088;3.096;2023-04-03T15:22:51;1.23;;;1.13;;
66163;SDS011;52962;51.088;3.096;2023-04-03T15:27:47;1.15;;;1.05;;
66163;SDS011;52962;51.088;3.096;2023-04-03T15:30:17;1.20;;;1.10;;
66163;SDS011;52962;51.088;3.096;2023-04-03T15:32:46;1.35;;;1.25;;
66163;SDS011;52962;51.088;3.096;2023-04-03T15:35:16;1.15;;;1.05;;
66163;SDS011;52962;51.088;3.096;2023-04-03T15:37:45;0.90;;;0.90;;
66163;SDS011;52962;51.088;3.096;2023-04-03T15:40:14;1.30;;;1.20;;
66163;SDS011;52962;51.088;3.096;2023-04-03T15:42:46;1.38;;;1.25;;
66163;SDS011;52962;51.088;3.096;2023-04-03T15:45:14;1.30;;;1.08;;
66163;SDS011;52962;51.088;3.096;2023-04-03T15:47:42;1.15;;;1.02;;
66163;SDS011;52962;51.088;3.096;2023-04-03T15:50:10;1.23;;;0.82;;
66163;SDS011;52962;51.088;3.096;2023-04-03T15:52:40;1.20;;;1.00;;
66163;SDS011;52962;51.088;3.096;2023-04-03T15:55:08;1.20;;;1.10;;
66163;SDS011;52962;51.088;3.096;2023-04-03T15:57:36;3.05;;;2.75;;
66163;SDS011;52962;51.088;3.096;2023-04-03T16:00:06;2.95;;;2.15;;
66163;SDS011;52962;51.088;3.096;2023-04-03T16:02:35;1.30;;;1.20;;
66163;SDS011;52962;51.088;3.096;2023-04-03T16:05:04;1.45;;;1.35;;